Time;durP1;ratioP1;P1;durP2;ratioP2;P2;SDS_P1;SDS_P2;PMS_P1;PMS_P2;Temp;Humidity;BMP_temperature;BMP_pressure;BME280_temperature;BME280_humidity;BME280_pressure;Samples;Min_cycle;Max_cycle;Signal;HPM_P1;HPM_P2
2022/12/11 00:01:59;;;;;;;58.90;15.40;;;0.20;99.90;;;;;;5037449;28;20115;-68
2022/12/11 00:04:25;;;;;;;50.63;14.02;;;0.10;99.90;;;;;;5048111;28;20478;-67
2022/12/11 00:06:51;;;;;;;55.80;14.68;;;0.20;99.90;;;;;;5050560;28;20111;-67
2022/12/11 00:09:19;;;;;;;62.88;16.30;;;0.20;99.90;;;;;;5024395;28;20037;-67
2022/12/11 00:11:45;;;;;;;63.58;15.73;;;0.20;99.90;;;;;;5027712;28;20029;-67
2022/12/11 00:14:12;;;;;;;56.38;15.43;;;0.20;99.90;;;;;;5048353;28;20048;-68
2022/12/11 00:16:37;;;;;;;56.25;15.95;;;0.20;99.90;;;;;;5027377;28;20098;-68
2022/12/11 00:19:03;;;;;;;61.92;15.88;;;0.30;99.90;;;;;;5017631;28;20447;-67
2022/12/11 00:21:29;;;;;;;68.22;17.10;;;0.30;99.90;;;;;;5048792;28;20044;-68
2022/12/11 00:23:55;;;;;;;61.65;16.25;;;0.30;99.90;;;;;;5054568;28;20030;-68
2022/12/11 00:26:20;;;;;;;58.75;16.05;;;0.30;99.90;;;;;;5034925;28;20491;-68
2022/12/11 00:28:46;;;;;;;50.53;14.88;;;0.30;99.90;;;;;;5053887;28;20086;-68
2022/12/11 00:31:15;;;;;;;58.00;15.02;;;0.40;99.90;;;;;;5054255;28;20036;-67
2022/12/11 00:33:42;;;;;;;67.00;16.90;;;0.40;99.90;;;;;;5016353;28;20491;-68
2022/12/11 00:36:13;;;;;;;61.83;16.23;;;0.40;99.90;;;;;;5039518;28;20052;-68
2022/12/11 00:38:39;;;;;;;56.35;15.70;;;0.40;99.90;;;;;;5036518;28;20114;-68
2022/12/11 00:41:05;;;;;;;54.63;13.98;;;0.50;99.90;;;;;;5030239;28;20067;-67
2022/12/11 00:43:30;;;;;;;57.63;15.60;;;0.50;99.90;;;;;;5031705;28;20404;-68
2022/12/11 00:45:56;;;;;;;49.25;15.13;;;0.50;99.90;;;;;;5036404;28;20071;-68
2022/12/11 00:48:21;;;;;;;56.42;15.48;;;0.50;99.90;;;;;;5054037;28;20499;-68
2022/12/11 00:50:47;;;;;;;56.17;14.50;;;0.50;99.90;;;;;;5023505;28;20033;-68
2022/12/11 00:53:13;;;;;;;59.30;14.50;;;0.60;99.90;;;;;;5040242;28;20506;-68
2022/12/11 00:55:40;;;;;;;46.83;14.50;;;0.50;99.90;;;;;;5053554;28;20037;-68
2022/12/11 00:58:07;;;;;;;54.75;15.55;;;0.50;99.90;;;;;;5053941;28;20420;-68
2022/12/11 01:00:33;;;;;;;57.25;15.15;;;0.50;99.90;;;;;;5032261;28;20041;-68
2022/12/11 01:02:58;;;;;;;52.67;14.85;;;0.60;99.90;;;;;;5031788;28;20047;-67
2022/12/11 01:05:24;;;;;;;51.95;14.70;;;0.60;99.90;;;;;;5053900;28;20090;-67
2022/12/11 01:07:49;;;;;;;58.47;15.00;;;0.60;99.90;;;;;;5032057;28;20063;-68
2022/12/11 01:10:25;;;;;;;62.30;15.65;;;0.60;99.90;;;;;;5035108;28;20402;-67
2022/12/11 01:12:57;;;;;;;58.58;16.92;;;0.60;99.90;;;;;;5019876;28;20041;-68
2022/12/11 01:15:27;;;;;;;57.30;15.38;;;0.70;99.90;;;;;;5035102;28;20112;-68
2022/12/11 01:17:53;;;;;;;60.85;17.15;;;0.70;99.90;;;;;;5008461;28;20047;-68
2022/12/11 01:20:20;;;;;;;50.60;15.88;;;0.70;99.90;;;;;;5037174;28;20040;-68
2022/12/11 01:22:46;;;;;;;59.25;15.63;;;0.70;99.90;;;;;;5018684;28;20067;-67
2022/12/11 01:25:12;;;;;;;58.25;15.48;;;0.70;99.90;;;;;;5031983;28;20025;-68
2022/12/11 01:27:38;;;;;;;53.47;15.73;;;0.70;99.90;;;;;;5032448;28;20062;-68
2022/12/11 01:30:06;;;;;;;58.35;16.10;;;0.70;99.90;;;;;;5053021;28;20112;-68
2022/12/11 01:32:33;;;;;;;53.97;14.82;;;0.70;99.90;;;;;;5029554;28;20086;-68
2022/12/11 01:35:01;;;;;;;53.40;15.57;;;0.70;99.90;;;;;;5043259;28;20454;-68
2022/12/11 01:37:26;;;;;;;56.05;15.40;;;0.60;99.90;;;;;;5035591;28;20116;-68
2022/12/11 01:39:52;;;;;;;55.60;15.57;;;0.70;99.90;;;;;;5027171;28;20543;-68
2022/12/11 01:42:19;;;;;;;56.17;16.00;;;0.70;99.90;;;;;;5035160;28;20037;-68
2022/12/11 01:44:44;;;;;;;60.58;14.63;;;0.70;99.90;;;;;;5051902;28;20087;-68
2022/12/11 01:47:10;;;;;;;51.50;15.32;;;0.70;99.90;;;;;;5053372;28;20402;-68
2022/12/11 01:49:39;;;;;;;46.25;14.98;;;0.70;99.90;;;;;;5025754;28;20048;-68
2022/12/11 01:52:10;;;;;;;52.83;15.32;;;0.70;99.90;;;;;;5028227;28;20045;-68
2022/12/11 01:54:36;;;;;;;55.72;15.23;;;0.70;99.90;;;;;;5052622;28;20041;-68
2022/12/11 01:57:04;;;;;;;47.88;14.05;;;0.70;99.90;;;;;;5043586;28;20041;-68
2022/12/11 01:59:34;;;;;;;57.17;15.75;;;0.70;99.90;;;;;;5018082;28;20069;-68
2022/12/11 02:02:07;;;;;;;46.47;14.85;;;0.70;99.90;;;;;;5052252;28;20550;-68
2022/12/11 02:04:36;;;;;;;49.08;14.10;;;0.70;99.90;;;;;;5046944;28;20108;-68
2022/12/11 02:07:02;;;;;;;42.63;13.55;;;0.80;99.90;;;;;;5038526;28;20033;-68
2022/12/11 02:09:32;;;;;;;61.63;15.88;;;0.80;99.90;;;;;;5052501;28;20040;-68
2022/12/11 02:12:14;;;;;;;59.97;15.63;;;0.80;99.90;;;;;;5033954;28;20045;-68
2022/12/11 02:15:02;;;;;;;52.83;15.27;;;0.70;99.90;;;;;;5021919;28;20059;-68
2022/12/11 02:17:45;;;;;;;58.22;15.23;;;0.80;99.90;;;;;;5018442;28;20074;-68
2022/12/11 02:20:33;;;;;;;62.70;15.85;;;0.80;99.90;;;;;;5034413;28;20041;-68
2022/12/11 02:23:06;;;;;;;59.05;17.08;;;0.70;99.90;;;;;;5039580;28;20032;-68
2022/12/11 02:25:52;;;;;;;59.85;16.08;;;0.70;99.90;;;;;;5038330;28;20045;-68
2022/12/11 02:28:32;;;;;;;54.80;15.13;;;0.70;99.90;;;;;;5034374;28;20071;-68
2022/12/11 02:31:19;;;;;;;53.78;15.60;;;0.70;99.90;;;;;;5042794;28;20052;-68
2022/12/11 02:33:53;;;;;;;67.78;16.88;;;0.60;99.90;;;;;;5035172;28;20037;-68
2022/12/11 02:36:23;;;;;;;58.47;16.23;;;0.60;99.90;;;;;;5051870;28;20395;-68
2022/12/11 02:38:53;;;;;;;72.00;16.63;;;0.60;99.90;;;;;;5047804;28;20037;-68
2022/12/11 02:41:21;;;;;;;72.93;17.67;;;0.60;99.90;;;;;;5034286;28;20033;-68
2022/12/11 02:43:49;;;;;;;67.30;16.70;;;0.60;99.90;;;;;;5051464;28;20079;-68
2022/12/11 02:46:18;;;;;;;68.63;17.15;;;0.60;99.90;;;;;;5052224;28;20120;-68
2022/12/11 02:48:46;;;;;;;67.85;16.42;;;0.60;99.90;;;;;;4995483;28;20380;-68
2022/12/11 02:51:14;;;;;;;67.80;17.15;;;0.60;99.90;;;;;;5048646;28;20039;-68
2022/12/11 02:53:42;;;;;;;63.50;16.65;;;0.60;99.90;;;;;;5033568;28;20742;-67
2022/12/11 02:56:19;;;;;;;60.70;15.27;;;0.60;99.90;;;;;;5031882;28;20099;-67
2022/12/11 02:58:48;;;;;;;68.15;16.10;;;0.70;99.90;;;;;;5021617;28;20056;-68
2022/12/11 03:01:14;;;;;;;55.47;15.90;;;0.70;99.90;;;;;;5051395;28;20095;-68
2022/12/11 03:03:40;;;;;;;60.45;15.85;;;0.80;99.90;;;;;;5024172;28;20041;-68
2022/12/11 03:06:05;;;;;;;63.65;16.27;;;0.80;99.90;;;;;;5022761;28;20098;-67
2022/12/11 03:08:31;;;;;;;56.78;15.63;;;0.80;99.90;;;;;;5046701;28;20123;-68
2022/12/11 03:10:57;;;;;;;52.17;15.40;;;0.90;99.90;;;;;;5051489;28;20071;-68
2022/12/11 03:13:23;;;;;;;61.63;16.30;;;0.90;99.90;;;;;;5020607;28;20516;-68
2022/12/11 03:16:28;;;;;;;57.80;15.85;;;0.90;99.90;;;;;;5025551;28;20029;-67
2022/12/11 03:19:01;;;;;;;56.67;15.85;;;0.90;99.90;;;;;;5036757;28;20041;-68
2022/12/11 03:21:42;;;;;;;64.55;16.83;;;0.90;99.90;;;;;;5012485;28;20045;-67
2022/12/11 03:24:29;;;;;;;69.18;16.05;;;0.90;99.90;;;;;;5024905;28;20120;-68
2022/12/11 03:27:05;;;;;;;59.85;16.30;;;0.90;99.90;;;;;;5019031;28;20059;-67
2022/12/11 03:29:36;;;;;;;60.95;16.05;;;1.00;99.90;;;;;;5051634;28;20044;-67
2022/12/11 03:32:05;;;;;;;57.60;15.55;;;1.00;99.90;;;;;;5012929;28;20040;-67
2022/12/11 03:34:43;;;;;;;62.95;16.08;;;1.00;99.90;;;;;;5031516;28;20495;-67
2022/12/11 03:37:10;;;;;;;70.07;16.95;;;1.00;99.90;;;;;;5046584;28;20049;-68
2022/12/11 03:39:43;;;;;;;64.03;16.13;;;1.00;99.90;;;;;;5021001;28;20091;-68
2022/12/11 03:42:12;;;;;;;54.17;15.63;;;1.00;99.90;;;;;;5050841;28;20052;-68
2022/12/11 03:44:39;;;;;;;59.60;17.23;;;1.00;99.90;;;;;;5047938;28;20102;-68
2022/12/11 03:47:08;;;;;;;66.03;16.88;;;1.10;99.90;;;;;;5018946;28;20037;-68
2022/12/11 03:49:37;;;;;;;69.30;17.30;;;1.00;99.90;;;;;;5029406;28;20069;-67
2022/12/11 03:52:05;;;;;;;61.20;15.98;;;1.10;99.90;;;;;;5050950;28;20847;-68
2022/12/11 03:54:33;;;;;;;57.45;16.08;;;1.10;99.90;;;;;;5041082;28;20087;-68
2022/12/11 03:57:01;;;;;;;64.32;17.17;;;1.10;99.90;;;;;;5016079;28;20047;-68
2022/12/11 03:59:27;;;;;;;92.07;17.63;;;1.10;99.90;;;;;;5054859;28;20032;-67
2022/12/11 04:01:52;;;;;;;66.90;16.63;;;1.10;99.90;;;;;;5055077;28;20094;-68
2022/12/11 04:04:19;;;;;;;66.60;18.38;;;1.00;99.90;;;;;;5024158;28;20039;-68
2022/12/11 04:06:44;;;;;;;75.25;16.38;;;1.00;99.90;;;;;;5053780;28;20037;-68
2022/12/11 04:09:10;;;;;;;84.20;18.63;;;1.00;99.90;;;;;;5055244;28;20063;-67
2022/12/11 04:11:36;;;;;;;70.72;17.88;;;0.90;99.90;;;;;;5014982;28;20124;-68
2022/12/11 04:16:48;;;;;;;65.45;17.15;;;0.90;99.90;;;;;;5038126;28;20167;-67
2022/12/11 04:24:14;;;;;;;55.33;16.75;;;1.00;99.90;;;;;;5024071;28;20060;-68
2022/12/11 04:25:04;;;;;;;65.40;15.70;;;1.00;99.90;;;;;;5023403;28;20053;-68
2022/12/11 04:27:48;;;;;;;66.13;16.67;;;1.00;99.90;;;;;;5048581;28;20103;-68
2022/12/11 04:30:23;;;;;;;61.00;15.70;;;1.00;99.90;;;;;;5027683;28;20495;-68
2022/12/11 04:32:49;;;;;;;64.00;16.45;;;1.10;99.90;;;;;;5020181;28;20044;-67
2022/12/11 04:35:15;;;;;;;54.05;15.38;;;1.10;99.90;;;;;;5031415;28;20045;-68
2022/12/11 04:37:40;;;;;;;66.72;17.48;;;1.10;99.90;;;;;;5015607;28;20041;-68
2022/12/11 04:40:10;;;;;;;55.67;15.80;;;1.10;99.90;;;;;;5034563;28;20035;-68
2022/12/11 04:42:35;;;;;;;59.58;16.33;;;1.10;99.90;;;;;;5044198;28;20128;-68
2022/12/11 04:45:02;;;;;;;55.38;15.27;;;1.10;99.90;;;;;;5028622;28;20116;-68
2022/12/11 04:47:27;;;;;;;60.60;16.83;;;1.10;99.90;;;;;;5045781;28;20091;-68
2022/12/11 04:49:53;;;;;;;56.92;16.58;;;1.10;99.90;;;;;;5054103;28;20044;-68
2022/12/11 04:52:18;;;;;;;70.78;17.13;;;1.10;99.90;;;;;;5045833;28;20042;-68
2022/12/11 04:54:44;;;;;;;60.85;16.73;;;1.10;99.90;;;;;;5032741;28;20041;-68
2022/12/11 04:57:10;;;;;;;63.17;16.67;;;1.10;99.90;;;;;;5035801;28;20036;-68
2022/12/11 04:59:36;;;;;;;58.53;16.77;;;1.10;99.90;;;;;;5054045;28;20029;-68
2022/12/11 05:02:02;;;;;;;62.38;17.52;;;1.20;99.90;;;;;;5015100;28;20480;-68
2022/12/11 05:04:32;;;;;;;62.70;17.73;;;1.20;99.90;;;;;;5037922;28;20037;-68
2022/12/11 05:06:58;;;;;;;63.75;16.65;;;1.20;99.90;;;;;;5035674;28;20128;-68
2022/12/11 05:09:24;;;;;;;66.93;16.27;;;1.20;99.90;;;;;;5040626;28;20121;-67
2022/12/11 05:11:50;;;;;;;55.80;15.88;;;1.20;99.90;;;;;;5029125;28;20044;-68
2022/12/11 05:14:16;;;;;;;57.65;15.85;;;1.20;99.90;;;;;;5033198;28;20037;-68
2022/12/11 05:16:42;;;;;;;58.65;16.00;;;1.20;99.90;;;;;;5053621;28;20044;-68
2022/12/11 05:19:08;;;;;;;56.50;16.98;;;1.20;99.90;;;;;;5025428;28;20111;-68
2022/12/11 05:21:33;;;;;;;52.97;16.25;;;1.20;99.90;;;;;;5032315;28;20045;-68
2022/12/11 05:23:59;;;;;;;51.45;16.58;;;1.20;99.90;;;;;;5053199;28;20064;-68
2022/12/11 05:26:25;;;;;;;52.60;15.68;;;1.20;99.90;;;;;;5017132;28;20037;-68
2022/12/11 05:28:53;;;;;;;61.80;16.92;;;1.20;99.90;;;;;;5048491;28;20044;-68
2022/12/11 05:31:23;;;;;;;49.63;15.82;;;1.20;99.90;;;;;;5035074;28;20411;-68
2022/12/11 05:33:51;;;;;;;52.70;15.75;;;1.20;99.90;;;;;;5015109;28;20141;-68
2022/12/11 05:36:29;;;;;;;58.00;14.68;;;1.20;99.90;;;;;;5026839;28;20033;-68
2022/12/11 05:38:56;;;;;;;51.25;14.98;;;1.20;99.90;;;;;;5020751;28;20041;-68
2022/12/11 05:41:24;;;;;;;45.38;14.95;;;1.20;99.90;;;;;;5053121;28;20442;-68
2022/12/11 05:43:50;;;;;;;56.33;15.70;;;1.20;99.90;;;;;;5043428;28;20045;-68
2022/12/11 05:46:24;;;;;;;51.85;14.88;;;1.20;99.90;;;;;;5028730;28;20526;-68
2022/12/11 05:48:54;;;;;;;49.40;14.32;;;1.20;99.90;;;;;;5037099;28;20045;-68
2022/12/11 05:51:20;;;;;;;48.05;14.15;;;1.30;99.90;;;;;;5019597;28;20033;-68
2022/12/11 05:53:49;;;;;;;48.28;14.00;;;1.20;99.90;;;;;;5025186;28;20037;-68
2022/12/11 05:56:17;;;;;;;52.15;15.00;;;1.20;99.90;;;;;;5016220;28;20029;-68
2022/12/11 05:58:43;;;;;;;51.50;14.80;;;1.30;99.90;;;;;;5034251;28;20415;-69
2022/12/11 06:01:12;;;;;;;51.30;14.25;;;1.30;99.90;;;;;;5034629;28;20095;-68
2022/12/11 06:03:38;;;;;;;46.40;14.77;;;1.30;99.90;;;;;;5052858;28;20117;-69
2022/12/11 06:06:05;;;;;;;49.25;14.10;;;1.20;99.90;;;;;;5028747;28;20465;-68
2022/12/11 06:08:31;;;;;;;48.80;14.18;;;1.20;99.90;;;;;;5026343;28;20048;-68
2022/12/11 06:10:57;;;;;;;48.22;13.50;;;1.20;99.90;;;;;;5050722;28;20033;-68
2022/12/11 06:13:22;;;;;;;45.35;14.55;;;1.20;99.90;;;;;;5049226;28;20513;-69
2022/12/11 06:15:48;;;;;;;50.13;14.25;;;1.20;99.90;;;;;;5010525;28;20092;-68
2022/12/11 06:18:14;;;;;;;42.58;12.82;;;1.20;99.90;;;;;;5010940;28;20038;-68
2022/12/11 06:20:40;;;;;;;47.53;14.18;;;1.20;99.90;;;;;;5030830;28;20506;-69
2022/12/11 06:23:05;;;;;;;46.33;13.82;;;1.20;99.90;;;;;;5034146;28;20045;-69
2022/12/11 06:25:31;;;;;;;44.80;13.57;;;1.20;99.90;;;;;;5027137;28;20038;-68
2022/12/11 06:27:57;;;;;;;43.25;13.38;;;1.20;99.90;;;;;;5029948;28;20088;-68
2022/12/11 06:30:22;;;;;;;45.67;13.73;;;1.20;99.90;;;;;;5028369;28;20069;-69
2022/12/11 06:32:48;;;;;;;50.63;13.95;;;1.20;99.90;;;;;;5020599;28;20049;-68
2022/12/11 06:35:14;;;;;;;49.10;15.10;;;1.20;99.90;;;;;;5010225;28;20048;-69
2022/12/11 06:37:39;;;;;;;46.35;14.52;;;1.20;99.90;;;;;;5027648;28;20041;-68
2022/12/11 06:40:07;;;;;;;49.47;14.40;;;1.20;99.90;;;;;;5001439;28;20112;-67
2022/12/11 06:42:33;;;;;;;36.58;13.05;;;1.20;99.90;;;;;;5027192;28;20448;-68
2022/12/11 06:44:58;;;;;;;49.42;14.18;;;1.30;99.90;;;;;;5013130;28;20124;-68
2022/12/11 06:47:29;;;;;;;46.10;14.65;;;1.30;99.90;;;;;;5007128;28;20038;-68
2022/12/11 06:49:55;;;;;;;48.50;14.10;;;1.30;99.90;;;;;;5005830;28;20090;-69
2022/12/11 06:52:22;;;;;;;50.72;15.30;;;1.30;99.90;;;;;;5002464;28;20056;-67
2022/12/11 06:54:48;;;;;;;47.30;14.90;;;1.30;99.90;;;;;;5024349;28;20060;-67
2022/12/11 06:57:14;;;;;;;53.38;14.60;;;1.30;99.90;;;;;;5015216;28;20393;-67
2022/12/11 06:59:40;;;;;;;48.13;14.82;;;1.30;99.90;;;;;;5029370;28;20084;-69
2022/12/11 07:02:06;;;;;;;54.05;14.55;;;1.30;99.90;;;;;;5009359;28;20076;-67
2022/12/11 07:04:31;;;;;;;52.45;14.30;;;1.30;99.90;;;;;;5021725;28;20046;-69
2022/12/11 07:06:57;;;;;;;47.00;13.30;;;1.30;99.90;;;;;;5004220;28;20112;-69
2022/12/11 07:09:23;;;;;;;46.75;13.82;;;1.30;99.90;;;;;;5000968;28;20033;-69
2022/12/11 07:11:52;;;;;;;51.95;14.60;;;1.20;99.90;;;;;;5027639;28;20479;-69
2022/12/11 07:14:19;;;;;;;45.00;14.52;;;1.20;99.90;;;;;;5018006;28;20060;-69
2022/12/11 07:16:45;;;;;;;49.08;14.48;;;1.20;99.90;;;;;;5024471;28;20411;-69
2022/12/11 07:19:10;;;;;;;57.70;14.60;;;1.20;99.90;;;;;;5007326;28;20049;-68
2022/12/11 07:21:36;;;;;;;53.00;15.85;;;1.30;99.90;;;;;;5015697;28;20529;-68
2022/12/11 07:24:05;;;;;;;48.47;14.15;;;1.30;99.90;;;;;;5021737;28;20038;-69
2022/12/11 07:26:31;;;;;;;47.17;13.63;;;1.30;99.90;;;;;;5006344;28;20053;-69
2022/12/11 07:28:57;;;;;;;52.17;14.20;;;1.30;99.90;;;;;;5001737;28;20053;-68
2022/12/11 07:31:25;;;;;;;54.33;15.18;;;1.30;99.90;;;;;;5015697;28;20097;-69
2022/12/11 07:33:59;;;;;;;52.33;14.95;;;1.30;99.90;;;;;;5009400;28;20041;-69
2022/12/11 07:36:25;;;;;;;48.00;14.82;;;1.30;99.90;;;;;;5022188;28;20076;-69
2022/12/11 07:38:52;;;;;;;50.55;14.23;;;1.30;99.90;;;;;;5013595;28;20037;-69
2022/12/11 07:41:18;;;;;;;47.10;14.55;;;1.20;99.90;;;;;;5018969;28;20052;-69
2022/12/11 07:43:44;;;;;;;45.95;14.80;;;1.30;99.90;;;;;;5003357;28;20484;-68
2022/12/11 07:46:16;;;;;;;47.00;14.85;;;1.30;99.90;;;;;;5010921;28;20061;-67
2022/12/11 07:48:44;;;;;;;51.60;14.10;;;1.30;99.90;;;;;;5034389;28;20330;-68
2022/12/11 07:51:13;;;;;;;49.08;15.40;;;1.30;99.90;;;;;;5030867;28;20052;-68
2022/12/11 07:53:40;;;;;;;48.00;14.38;;;1.30;99.90;;;;;;5049745;28;20619;-68
2022/12/11 07:56:06;;;;;;;50.97;14.45;;;1.30;99.90;;;;;;5029126;28;20048;-68
2022/12/11 07:58:32;;;;;;;48.55;14.27;;;1.30;99.90;;;;;;5035160;28;20116;-67
2022/12/11 08:00:58;;;;;;;51.50;15.98;;;1.30;99.90;;;;;;5050510;28;20117;-67
2022/12/11 08:03:24;;;;;;;43.40;14.57;;;1.30;99.90;;;;;;5033220;28;20084;-67
2022/12/11 08:05:50;;;;;;;49.53;14.70;;;1.30;99.90;;;;;;5022079;28;20033;-67
2022/12/11 08:08:17;;;;;;;47.78;14.70;;;1.30;99.90;;;;;;5043014;28;20041;-67
2022/12/11 08:10:42;;;;;;;49.65;14.48;;;1.30;99.90;;;;;;5050965;28;20159;-66
2022/12/11 08:13:08;;;;;;;49.13;14.35;;;1.30;99.90;;;;;;5034197;28;20120;-66
2022/12/11 08:15:34;;;;;;;48.75;14.85;;;1.40;99.90;;;;;;5047155;28;20716;-68
2022/12/11 08:18:00;;;;;;;47.63;14.60;;;1.30;99.90;;;;;;5033246;28;20056;-67
2022/12/11 08:20:25;;;;;;;50.65;14.57;;;1.30;99.90;;;;;;5026659;28;20160;-67
2022/12/11 08:22:51;;;;;;;44.85;13.88;;;1.40;99.90;;;;;;5025454;28;20033;-67
2022/12/11 08:25:17;;;;;;;42.35;14.10;;;1.40;99.90;;;;;;5029708;28;20078;-68
2022/12/11 08:27:42;;;;;;;49.83;14.80;;;1.40;99.90;;;;;;5032881;28;20094;-68
2022/12/11 08:30:08;;;;;;;46.60;15.07;;;1.40;99.90;;;;;;5051066;28;20044;-69
2022/12/11 08:32:34;;;;;;;52.05;16.02;;;1.40;99.90;;;;;;4997902;28;20034;-69
2022/12/11 08:35:00;;;;;;;53.35;15.13;;;1.40;99.90;;;;;;5019251;28;20047;-68
2022/12/11 08:37:26;;;;;;;54.08;16.08;;;1.40;99.90;;;;;;5027538;28;20768;-68
2022/12/11 08:39:51;;;;;;;46.88;14.30;;;1.40;99.90;;;;;;5036520;28;20025;-69
2022/12/11 08:42:17;;;;;;;45.70;14.18;;;1.40;99.90;;;;;;5035848;28;20124;-69
2022/12/11 08:44:43;;;;;;;49.40;15.88;;;1.40;99.90;;;;;;5036366;28;20048;-69
2022/12/11 08:47:08;;;;;;;49.75;14.80;;;1.40;99.90;;;;;;5016273;28;20496;-69
2022/12/11 08:49:35;;;;;;;51.63;15.45;;;1.40;99.90;;;;;;5031847;28;20046;-68
2022/12/11 08:52:03;;;;;;;49.25;15.63;;;1.40;99.90;;;;;;5026377;28;20107;-68
2022/12/11 08:54:29;;;;;;;43.08;14.95;;;1.50;99.90;;;;;;5002701;28;20050;-68
2022/12/11 08:56:54;;;;;;;46.90;14.65;;;1.50;99.90;;;;;;5008985;28;20095;-68
2022/12/11 08:59:20;;;;;;;42.25;15.00;;;1.50;99.90;;;;;;5008812;28;20404;-68
2022/12/11 09:01:46;;;;;;;47.13;14.88;;;1.50;99.90;;;;;;5030562;28;20047;-68
2022/12/11 09:04:11;;;;;;;47.13;15.80;;;1.50;99.90;;;;;;5023801;28;20073;-69
2022/12/11 09:06:37;;;;;;;41.00;13.65;;;1.60;99.90;;;;;;5024453;28;20080;-69
2022/12/11 09:09:03;;;;;;;45.97;14.30;;;1.60;99.90;;;;;;5007371;28;20037;-69
2022/12/11 09:11:32;;;;;;;45.63;14.45;;;1.60;99.90;;;;;;5003696;28;20503;-68
2022/12/11 09:13:58;;;;;;;46.47;15.50;;;1.60;99.90;;;;;;5025914;28;20042;-68
2022/12/11 09:16:25;;;;;;;47.08;14.68;;;1.60;99.90;;;;;;5020047;28;20063;-68
2022/12/11 09:18:53;;;;;;;47.38;15.18;;;1.60;99.90;;;;;;5053155;28;20638;-68
2022/12/11 09:21:21;;;;;;;48.78;14.63;;;1.60;99.90;;;;;;5032127;28;20038;-68
2022/12/11 09:23:48;;;;;;;42.92;14.40;;;1.70;99.90;;;;;;5033049;28;20045;-68
2022/12/11 09:26:15;;;;;;;43.17;14.77;;;1.60;99.90;;;;;;5035461;28;20051;-69
2022/12/11 09:28:42;;;;;;;46.40;15.18;;;1.60;99.90;;;;;;5039695;28;20088;-69
2022/12/11 09:31:10;;;;;;;39.88;13.55;;;1.60;99.90;;;;;;5034094;28;20110;-68
2022/12/11 09:33:35;;;;;;;44.50;13.65;;;1.60;99.90;;;;;;5052829;28;20052;-68
2022/12/11 09:36:03;;;;;;;39.47;14.30;;;1.60;99.90;;;;;;5048917;28;20037;-69
2022/12/11 09:38:29;;;;;;;45.20;13.30;;;1.60;99.90;;;;;;5034791;28;20068;-69
2022/12/11 09:40:55;;;;;;;46.83;13.80;;;1.60;99.90;;;;;;5053082;28;20086;-68
2022/12/11 09:43:32;;;;;;;41.78;12.75;;;1.60;99.90;;;;;;5035417;28;20539;-68
2022/12/11 09:46:01;;;;;;;47.03;14.95;;;1.60;99.90;;;;;;5006712;28;20033;-68
2022/12/11 09:48:26;;;;;;;40.33;13.43;;;1.60;99.90;;;;;;5046760;28;20073;-68
2022/12/11 09:50:53;;;;;;;45.47;13.95;;;1.60;99.90;;;;;;5053304;28;20037;-68
2022/12/11 09:53:31;;;;;;;43.92;14.45;;;1.60;99.90;;;;;;5021730;28;20128;-68
2022/12/11 09:56:03;;;;;;;44.88;13.63;;;1.60;99.90;;;;;;5013837;28;20033;-68
2022/12/11 09:58:54;;;;;;;41.65;13.88;;;1.60;99.90;;;;;;5052537;28;20399;-68
2022/12/11 10:01:31;;;;;;;36.05;13.52;;;1.60;99.90;;;;;;5038989;28;20125;-68
2022/12/11 10:03:59;;;;;;;44.40;13.40;;;1.60;99.90;;;;;;5029226;28;20590;-68
2022/12/11 10:06:40;;;;;;;46.22;14.02;;;1.60;99.90;;;;;;5052548;28;20133;-68
2022/12/11 10:09:24;;;;;;;44.17;13.20;;;1.60;99.90;;;;;;5034992;28;20075;-68
2022/12/11 10:12:02;;;;;;;44.20;13.60;;;1.60;99.90;;;;;;5032925;28;20500;-68
2022/12/11 10:14:54;;;;;;;46.30;13.73;;;1.60;99.90;;;;;;5032511;28;20116;-67
2022/12/11 10:17:41;;;;;;;37.72;13.55;;;1.60;99.90;;;;;;5052840;28;20044;-68
2022/12/11 10:20:33;;;;;;;44.38;14.55;;;1.70;99.90;;;;;;5028023;28;20090;-66
2022/12/11 10:23:00;;;;;;;40.80;13.23;;;1.70;99.90;;;;;;5034657;28;20048;-68
2022/12/11 10:25:30;;;;;;;47.15;14.88;;;1.70;99.90;;;;;;5041459;28;20053;-67
2022/12/11 10:27:56;;;;;;;48.13;14.75;;;1.70;99.90;;;;;;5019886;28;20052;-68
2022/12/11 10:30:28;;;;;;;47.45;14.25;;;1.70;99.90;;;;;;5026653;28;20109;-68
2022/12/11 10:33:12;;;;;;;42.97;14.20;;;1.80;99.90;;;;;;5027564;28;20087;-68
2022/12/11 10:35:54;;;;;;;40.20;13.85;;;1.80;99.90;;;;;;5021332;28;20041;-68
2022/12/11 10:38:26;;;;;;;42.10;13.23;;;1.90;99.90;;;;;;5023740;28;20038;-68
2022/12/11 10:41:02;;;;;;;41.22;13.70;;;1.90;99.90;;;;;;5018911;28;20040;-67
2022/12/11 10:43:35;;;;;;;46.78;14.63;;;1.90;99.90;;;;;;5027892;28;20120;-67
2022/12/11 10:46:01;;;;;;;43.10;15.25;;;1.90;99.90;;;;;;5011707;28;20033;-68
2022/12/11 10:48:27;;;;;;;35.95;13.45;;;1.90;99.90;;;;;;5012613;28;20076;-67
2022/12/11 10:50:59;;;;;;;40.03;13.50;;;1.90;99.90;;;;;;5035464;28;20041;-67
2022/12/11 10:53:25;;;;;;;39.25;12.90;;;1.90;99.90;;;;;;5031004;28;20452;-67
2022/12/11 10:55:52;;;;;;;39.25;13.38;;;1.90;99.90;;;;;;5042394;28;20090;-68
2022/12/11 10:58:24;;;;;;;38.05;13.57;;;2.00;99.90;;;;;;5033092;28;20116;-68
2022/12/11 11:01:04;;;;;;;42.78;13.73;;;2.00;99.90;;;;;;5043057;28;20586;-68
2022/12/11 11:03:32;;;;;;;45.10;14.07;;;2.00;99.90;;;;;;5001806;28;20280;-69
2022/12/11 11:06:18;;;;;;;41.22;13.20;;;2.00;99.90;;;;;;5051582;28;20079;-69
2022/12/11 11:08:47;;;;;;;43.15;13.65;;;2.00;99.90;;;;;;5034224;28;20563;-69
2022/12/11 11:11:25;;;;;;;44.72;14.20;;;2.00;99.90;;;;;;5026345;28;20037;-69
2022/12/11 11:14:02;;;;;;;37.40;14.20;;;2.00;99.90;;;;;;5017488;28;20041;-69
2022/12/11 11:16:28;;;;;;;39.90;13.70;;;2.00;99.90;;;;;;5011547;28;20038;-69
2022/12/11 11:18:56;;;;;;;50.30;14.73;;;2.10;99.90;;;;;;5031882;28;20086;-69
2022/12/11 11:21:25;;;;;;;47.72;13.57;;;2.10;99.90;;;;;;5050974;28;20047;-68
2022/12/11 11:23:52;;;;;;;47.90;14.60;;;2.10;99.90;;;;;;5051334;28;20049;-69
2022/12/11 11:26:19;;;;;;;39.00;13.32;;;2.10;99.90;;;;;;5006181;28;20178;-69
2022/12/11 11:28:51;;;;;;;42.75;15.13;;;2.10;99.90;;;;;;5004721;28;20079;-70
2022/12/11 11:31:16;;;;;;;;;;;2.10;99.90;;;;;;5010045;28;20038;-69
2022/12/11 11:33:51;;;;;;;41.70;13.13;;;2.10;99.90;;;;;;5029968;28;19928;-69
2022/12/11 11:36:24;;;;;;;40.90;13.57;;;2.20;99.90;;;;;;5050829;28;20056;-69
2022/12/11 11:39:12;;;;;;;41.17;13.98;;;2.10;99.90;;;;;;5033440;28;20052;-69
2022/12/11 11:41:46;;;;;;;43.75;14.77;;;2.10;99.90;;;;;;5008541;28;20491;-69
2022/12/11 11:44:16;;;;;;;43.22;14.13;;;2.20;99.90;;;;;;5019211;28;20040;-70
2022/12/11 11:46:50;;;;;;;39.65;13.65;;;2.20;99.90;;;;;;5050729;28;20068;-70
2022/12/11 11:49:40;;;;;;;41.50;13.68;;;2.20;99.90;;;;;;5037202;28;20557;-69
2022/12/11 11:52:25;;;;;;;44.65;15.07;;;2.20;99.90;;;;;;5010571;28;20561;-69
2022/12/11 11:55:08;;;;;;;44.95;14.15;;;2.20;99.90;;;;;;5042257;22;20405;-70
2022/12/11 11:57:46;;;;;;;49.53;15.30;;;2.20;99.90;;;;;;5025276;28;20056;-68
2022/12/11 12:00:24;;;;;;;39.92;13.32;;;2.20;99.90;;;;;;5010745;28;20045;-68
2022/12/11 12:02:55;;;;;;;44.92;13.80;;;2.20;99.90;;;;;;5041094;28;20112;-68
2022/12/11 12:05:29;;;;;;;44.00;14.18;;;2.20;99.90;;;;;;5041826;28;20040;-68
2022/12/11 12:08:33;;;;;;;42.25;14.23;;;2.10;99.90;;;;;;5021759;28;20045;-69
2022/12/11 12:11:28;;;;;;;47.30;15.25;;;2.10;99.90;;;;;;5022724;28;20057;-69
2022/12/11 12:14:06;;;;;;;45.20;14.98;;;2.10;99.90;;;;;;5023330;28;20041;-69
2022/12/11 12:16:43;;;;;;;46.13;14.25;;;2.10;99.90;;;;;;5025161;28;20048;-69
2022/12/11 12:19:35;;;;;;;46.47;15.13;;;2.00;99.90;;;;;;5010812;28;20063;-69
2022/12/11 12:22:13;;;;;;;39.60;13.15;;;2.00;99.90;;;;;;5045584;28;20041;-70
2022/12/11 12:24:57;;;;;;;47.55;15.77;;;2.00;99.90;;;;;;5040368;28;20095;-69
2022/12/11 12:27:39;;;;;;;40.80;14.25;;;2.00;99.90;;;;;;5027050;28;20414;-69
2022/12/11 12:30:10;;;;;;;41.20;14.40;;;2.00;99.90;;;;;;5020320;28;20048;-68
2022/12/11 12:32:54;;;;;;;46.83;15.02;;;2.00;99.90;;;;;;5021659;28;20041;-69
2022/12/11 12:35:34;;;;;;;46.75;15.13;;;2.00;99.90;;;;;;5023724;28;20041;-67
2022/12/11 12:38:31;;;;;;;42.58;14.70;;;2.00;99.90;;;;;;5042297;28;20064;-68
2022/12/11 12:41:13;;;;;;;45.35;15.43;;;2.10;99.90;;;;;;5045864;28;20048;-69
2022/12/11 12:43:41;;;;;;;;;;;2.10;99.90;;;;;;5021755;28;20521;-68
2022/12/11 12:46:17;;;;;;;42.55;14.75;;;2.10;99.90;;;;;;5041175;28;19931;-68
2022/12/11 12:48:44;;;;;;;42.03;14.35;;;2.10;99.90;;;;;;5018902;28;20037;-68
2022/12/11 12:51:13;;;;;;;49.60;15.05;;;2.10;99.90;;;;;;5021246;28;20405;-68
2022/12/11 12:53:46;;;;;;;41.13;14.63;;;2.10;99.90;;;;;;5026932;28;20049;-69
2022/12/11 12:56:13;;;;;;;44.45;15.23;;;2.10;99.90;;;;;;5019608;28;20053;-69
2022/12/11 12:58:39;;;;;;;49.15;15.73;;;2.10;99.90;;;;;;5022750;28;20863;-69